Scroll down
FLIGHT INFORMATION
Southwest Airlines

SWA2554

At Arrival Gate

KDAL
 KCOS
DATE: 2021-05-02
GATE:  -
GATE DEPARTURE: 20:10
TAKEOFF: 20:21
DATE: 2021-05-02
GATE:  -
LANDING: 21:53
GATE ARRIVAL: 22:04
FLIGHT DATA
Crew: 
Speed: 
458 kts
Altitude: 
36,021 ft
Stage Length: 
523.0 nm
Block Time: 
1.8 hrs
Flight Time: 
1.6 hrs
Fuel Used: 
9,182 lb
Cleared Route: KDAL HUDAD PNH TBE KCOS
TRACK DATA
50,000 ft 1,000 kts
AIRCRAFT INFO AND CUMULATIVE STATS
Aircraft Type: 
B737BW
Registration: 
SELCAL: 
MSN/LN: 
33923 / 2083
Operator: 
Total Flights: 
3
Total Block Time: 
8.7 hrs
Total Flight Time: 
7.9 hrs
Total Fuel Time: 
22,367 lb
DATALINK LOG | Newest first | Current as of: 2021-06-14 11:36:36
LABEL SEQUENCE CONTENT Dn/Up
QD311222:04 7.3▼ Dn
QC200221:53▼ Dn
2U1136KCOS 012154Z 13003G16KT 10SM BKN120 BKN180 27/M04 A2984 RMK AO2 PK WND 20028/2102 SLP027 T02721039▲ Up
2S5019KCOS▼ Dn
QB003720:21▼ Dn
QA492520:10 16.6▼ Dn
A31537CLEARED TO KCOS VIA KKITY5 HUDAD PNH TBE DBRY3. SQUAWK 7305.▲ Up
Q01427[LINK ACK]▲ Up
Q01427[LINK TEST]▼ Dn


AIRCRAFT HISTORY
FLIGHT DATE FLIGHT NO. ORIGIN DESTINATION CLEARED ROUTE BLOCK TIME FLIGHT TIME FUEL USED PILOT
2021-05-08SWA480KCOS KPHX KCOS BRK DRAKE PUB ALS RGINA PUMPS GUP KPHX1.9 hrs1.5 hrs8,621 lbMike Dryden
2021-05-02SWA2554KDAL KCOS KDAL HUDAD PNH TBE KCOS1.8 hrs1.6 hrs9,182 lbMike Dryden
2020-09-10SWA36KHOU KDAL KHOU MAJKK KDAL4.9 hrs4.8 hrs4,564 lbAlex K.